sensor_id;sensor_type;location;lat;lon;timestamp;temperature;humidity
18823;DHT22;9540;51.550;7.980;2022-12-24T00:01:34;10.40;99.90
18823;DHT22;9540;51.550;7.980;2022-12-24T00:04:01;10.40;99.90
18823;DHT22;9540;51.550;7.980;2022-12-24T00:06:28;10.40;99.90
18823;DHT22;9540;51.550;7.980;2022-12-24T00:08:56;10.50;99.90
18823;DHT22;9540;51.550;7.980;2022-12-24T00:11:23;10.50;99.90
18823;DHT22;9540;51.550;7.980;2022-12-24T00:13:50;10.50;99.90
18823;DHT22;9540;51.550;7.980;2022-12-24T00:16:17;10.50;99.90
18823;DHT22;9540;51.550;7.980;2022-12-24T00:18:43;10.50;99.90
18823;DHT22;9540;51.550;7.980;2022-12-24T00:21:10;10.40;99.90
18823;DHT22;9540;51.550;7.980;2022-12-24T00:23:39;10.40;99.90
18823;DHT22;9540;51.550;7.980;2022-12-24T00:26:07;10.40;99.90
18823;DHT22;9540;51.550;7.980;2022-12-24T00:28:34;10.40;99.90
18823;DHT22;9540;51.550;7.980;2022-12-24T00:31:07;10.40;99.90
18823;DHT22;9540;51.550;7.980;2022-12-24T00:33:33;10.20;99.90
18823;DHT22;9540;51.550;7.980;2022-12-24T00:36:00;10.10;99.90
18823;DHT22;9540;51.550;7.980;2022-12-24T00:38:27;9.90;99.90
18823;DHT22;9540;51.550;7.980;2022-12-24T00:40:57;9.90;99.90
18823;DHT22;9540;51.550;7.980;2022-12-24T00:43:26;9.80;99.90
18823;DHT22;9540;51.550;7.980;2022-12-24T00:45:53;9.80;99.90
18823;DHT22;9540;51.550;7.980;2022-12-24T00:48:20;9.80;99.90
18823;DHT22;9540;51.550;7.980;2022-12-24T00:50:47;9.80;99.90
18823;DHT22;9540;51.550;7.980;2022-12-24T00:53:15;9.70;99.90
18823;DHT22;9540;51.550;7.980;2022-12-24T00:55:42;9.70;99.90
18823;DHT22;9540;51.550;7.980;2022-12-24T00:58:09;9.80;99.90
18823;DHT22;9540;51.550;7.980;2022-12-24T01:00:37;9.80;99.90
18823;DHT22;9540;51.550;7.980;2022-12-24T01:03:04;9.80;99.90
18823;DHT22;9540;51.550;7.980;2022-12-24T01:05:31;9.90;99.90
18823;DHT22;9540;51.550;7.980;2022-12-24T01:07:57;10.00;99.90
18823;DHT22;9540;51.550;7.980;2022-12-24T01:10:24;10.10;99.90
18823;DHT22;9540;51.550;7.980;2022-12-24T01:12:51;10.00;99.90
18823;DHT22;9540;51.550;7.980;2022-12-24T01:15:18;10.10;99.90
18823;DHT22;9540;51.550;7.980;2022-12-24T01:17:46;10.00;99.90
18823;DHT22;9540;51.550;7.980;2022-12-24T01:20:14;10.00;99.90
18823;DHT22;9540;51.550;7.980;2022-12-24T01:22:42;10.00;99.90
18823;DHT22;9540;51.550;7.980;2022-12-24T01:25:09;10.00;99.90
18823;DHT22;9540;51.550;7.980;2022-12-24T01:27:36;10.10;99.90
18823;DHT22;9540;51.550;7.980;2022-12-24T01:30:05;10.10;99.90
18823;DHT22;9540;51.550;7.980;2022-12-24T01:32:32;10.20;99.90
18823;DHT22;9540;51.550;7.980;2022-12-24T01:35:00;10.10;99.90
18823;DHT22;9540;51.550;7.980;2022-12-24T01:37:27;10.20;99.90
18823;DHT22;9540;51.550;7.980;2022-12-24T01:39:54;10.10;99.90
18823;DHT22;9540;51.550;7.980;2022-12-24T01:42:45;10.10;99.90
18823;DHT22;9540;51.550;7.980;2022-12-24T01:45:41;10.20;99.90
18823;DHT22;9540;51.550;7.980;2022-12-24T01:48:21;10.20;99.90
18823;DHT22;9540;51.550;7.980;2022-12-24T01:50:53;10.10;99.90
18823;DHT22;9540;51.550;7.980;2022-12-24T01:53:21;10.10;99.90
18823;DHT22;9540;51.550;7.980;2022-12-24T01:55:48;10.10;99.90
18823;DHT22;9540;51.550;7.980;2022-12-24T01:58:16;10.10;99.90
18823;DHT22;9540;51.550;7.980;2022-12-24T02:00:44;10.00;99.90
18823;DHT22;9540;51.550;7.980;2022-12-24T02:03:11;10.00;99.90
18823;DHT22;9540;51.550;7.980;2022-12-24T02:05:45;10.00;99.90
18823;DHT22;9540;51.550;7.980;2022-12-24T02:08:15;10.00;99.90
18823;DHT22;9540;51.550;7.980;2022-12-24T02:10:42;10.00;99.90
18823;DHT22;9540;51.550;7.980;2022-12-24T02:13:09;10.00;99.90
18823;DHT22;9540;51.550;7.980;2022-12-24T02:15:46;10.00;99.90
18823;DHT22;9540;51.550;7.980;2022-12-24T02:18:19;10.00;99.90
18823;DHT22;9540;51.550;7.980;2022-12-24T02:21:21;9.90;99.90
18823;DHT22;9540;51.550;7.980;2022-12-24T02:30:11;10.00;99.90
18823;DHT22;9540;51.550;7.980;2022-12-24T02:33:10;10.00;99.90
18823;DHT22;9540;51.550;7.980;2022-12-24T02:35:45;10.00;99.90
18823;DHT22;9540;51.550;7.980;2022-12-24T02:38:18;10.00;99.90
18823;DHT22;9540;51.550;7.980;2022-12-24T02:40:50;10.00;99.90
18823;DHT22;9540;51.550;7.980;2022-12-24T02:43:20;10.00;99.90
18823;DHT22;9540;51.550;7.980;2022-12-24T02:45:53;10.00;99.90
18823;DHT22;9540;51.550;7.980;2022-12-24T02:48:23;10.10;99.90
18823;DHT22;9540;51.550;7.980;2022-12-24T02:50:56;10.00;99.90
18823;DHT22;9540;51.550;7.980;2022-12-24T02:53:24;10.00;99.90
18823;DHT22;9540;51.550;7.980;2022-12-24T02:56:02;9.90;99.90
18823;DHT22;9540;51.550;7.980;2022-12-24T02:58:38;10.00;99.90
18823;DHT22;9540;51.550;7.980;2022-12-24T03:01:16;9.90;99.90
18823;DHT22;9540;51.550;7.980;2022-12-24T03:03:53;9.90;99.90
18823;DHT22;9540;51.550;7.980;2022-12-24T03:06:33;9.90;99.90
18823;DHT22;9540;51.550;7.980;2022-12-24T03:09:07;9.80;99.90
18823;DHT22;9540;51.550;7.980;2022-12-24T03:11:41;9.70;99.90
18823;DHT22;9540;51.550;7.980;2022-12-24T03:14:10;9.80;99.90
18823;DHT22;9540;51.550;7.980;2022-12-24T03:16:41;9.70;99.90
18823;DHT22;9540;51.550;7.980;2022-12-24T03:19:08;9.60;99.90
18823;DHT22;9540;51.550;7.980;2022-12-24T03:21:38;9.60;99.90
18823;DHT22;9540;51.550;7.980;2022-12-24T03:24:07;9.60;99.90
18823;DHT22;9540;51.550;7.980;2022-12-24T03:26:35;9.50;99.90
18823;DHT22;9540;51.550;7.980;2022-12-24T03:29:04;9.50;99.90
18823;DHT22;9540;51.550;7.980;2022-12-24T03:31:41;9.40;99.90
18823;DHT22;9540;51.550;7.980;2022-12-24T03:34:08;9.40;99.90
18823;DHT22;9540;51.550;7.980;2022-12-24T03:36:35;9.40;99.90
18823;DHT22;9540;51.550;7.980;2022-12-24T03:39:02;9.50;99.90
18823;DHT22;9540;51.550;7.980;2022-12-24T03:41:29;9.40;99.90
18823;DHT22;9540;51.550;7.980;2022-12-24T03:43:56;9.40;99.90
18823;DHT22;9540;51.550;7.980;2022-12-24T03:46:23;9.20;99.90
18823;DHT22;9540;51.550;7.980;2022-12-24T03:48:51;9.30;99.90
18823;DHT22;9540;51.550;7.980;2022-12-24T03:51:19;9.30;99.90
18823;DHT22;9540;51.550;7.980;2022-12-24T03:53:47;9.30;99.90
18823;DHT22;9540;51.550;7.980;2022-12-24T03:56:14;9.20;99.90
18823;DHT22;9540;51.550;7.980;2022-12-24T03:58:41;9.20;99.90
18823;DHT22;9540;51.550;7.980;2022-12-24T04:01:08;9.20;99.90
18823;DHT22;9540;51.550;7.980;2022-12-24T04:03:35;9.10;99.90
18823;DHT22;9540;51.550;7.980;2022-12-24T04:06:05;9.10;99.90
18823;DHT22;9540;51.550;7.980;2022-12-24T04:08:33;9.10;99.90
18823;DHT22;9540;51.550;7.980;2022-12-24T04:11:00;9.10;99.90
18823;DHT22;9540;51.550;7.980;2022-12-24T04:13:27;9.20;99.90
18823;DHT22;9540;51.550;7.980;2022-12-24T04:15:58;9.20;99.90
18823;DHT22;9540;51.550;7.980;2022-12-24T04:18:25;9.20;99.90
18823;DHT22;9540;51.550;7.980;2022-12-24T04:20:52;9.10;99.90
18823;DHT22;9540;51.550;7.980;2022-12-24T04:23:21;9.10;99.90
18823;DHT22;9540;51.550;7.980;2022-12-24T04:25:48;9.10;99.90
18823;DHT22;9540;51.550;7.980;2022-12-24T04:28:16;9.20;99.90
18823;DHT22;9540;51.550;7.980;2022-12-24T04:30:43;9.30;99.90
18823;DHT22;9540;51.550;7.980;2022-12-24T04:33:10;9.30;99.90
18823;DHT22;9540;51.550;7.980;2022-12-24T04:35:38;9.40;99.90
18823;DHT22;9540;51.550;7.980;2022-12-24T04:38:06;9.40;99.90
18823;DHT22;9540;51.550;7.980;2022-12-24T04:40:34;9.40;99.90
18823;DHT22;9540;51.550;7.980;2022-12-24T04:43:01;9.50;99.90
18823;DHT22;9540;51.550;7.980;2022-12-24T04:45:28;9.50;99.90
18823;DHT22;9540;51.550;7.980;2022-12-24T04:47:56;9.50;99.90
18823;DHT22;9540;51.550;7.980;2022-12-24T04:50:23;9.60;99.90
18823;DHT22;9540;51.550;7.980;2022-12-24T04:52:50;9.60;99.90
18823;DHT22;9540;51.550;7.980;2022-12-24T04:55:17;9.60;99.90
18823;DHT22;9540;51.550;7.980;2022-12-24T04:57:46;9.60;99.90
18823;DHT22;9540;51.550;7.980;2022-12-24T05:00:13;9.60;99.90
18823;DHT22;9540;51.550;7.980;2022-12-24T05:02:40;9.60;99.90
18823;DHT22;9540;51.550;7.980;2022-12-24T05:05:08;9.60;99.90
18823;DHT22;9540;51.550;7.980;2022-12-24T05:07:35;9.60;99.90
18823;DHT22;9540;51.550;7.980;2022-12-24T05:10:01;9.60;99.90
18823;DHT22;9540;51.550;7.980;2022-12-24T05:12:28;9.60;99.90
18823;DHT22;9540;51.550;7.980;2022-12-24T05:14:57;9.70;99.90
18823;DHT22;9540;51.550;7.980;2022-12-24T05:17:23;9.70;99.90
18823;DHT22;9540;51.550;7.980;2022-12-24T05:19:50;9.70;99.90
18823;DHT22;9540;51.550;7.980;2022-12-24T05:22:17;9.70;99.90
18823;DHT22;9540;51.550;7.980;2022-12-24T05:25:02;9.70;99.90
18823;DHT22;9540;51.550;7.980;2022-12-24T05:27:48;9.70;99.90
18823;DHT22;9540;51.550;7.980;2022-12-24T05:30:16;9.70;99.90
18823;DHT22;9540;51.550;7.980;2022-12-24T05:32:43;9.70;99.90
18823;DHT22;9540;51.550;7.980;2022-12-24T05:35:10;9.70;99.90
18823;DHT22;9540;51.550;7.980;2022-12-24T05:37:38;9.80;99.90
18823;DHT22;9540;51.550;7.980;2022-12-24T05:40:06;9.70;99.90
18823;DHT22;9540;51.550;7.980;2022-12-24T05:42:33;9.70;99.90
18823;DHT22;9540;51.550;7.980;2022-12-24T05:45:00;9.70;99.90
18823;DHT22;9540;51.550;7.980;2022-12-24T05:47:29;9.70;99.90
18823;DHT22;9540;51.550;7.980;2022-12-24T05:49:56;9.70;99.90
18823;DHT22;9540;51.550;7.980;2022-12-24T05:52:23;9.70;99.90
18823;DHT22;9540;51.550;7.980;2022-12-24T05:54:49;9.70;99.90
18823;DHT22;9540;51.550;7.980;2022-12-24T05:57:16;9.70;99.90
18823;DHT22;9540;51.550;7.980;2022-12-24T05:59:43;9.60;99.90
18823;DHT22;9540;51.550;7.980;2022-12-24T06:02:10;9.60;99.90
18823;DHT22;9540;51.550;7.980;2022-12-24T06:04:38;9.60;99.90
18823;DHT22;9540;51.550;7.980;2022-12-24T06:07:05;9.60;99.90
18823;DHT22;9540;51.550;7.980;2022-12-24T06:09:32;9.60;99.90
18823;DHT22;9540;51.550;7.980;2022-12-24T06:11:59;9.60;99.90
18823;DHT22;9540;51.550;7.980;2022-12-24T06:14:26;9.60;99.90
18823;DHT22;9540;51.550;7.980;2022-12-24T06:16:53;9.70;99.90
18823;DHT22;9540;51.550;7.980;2022-12-24T06:19:20;9.60;99.90
18823;DHT22;9540;51.550;7.980;2022-12-24T06:21:48;9.50;99.90
18823;DHT22;9540;51.550;7.980;2022-12-24T06:24:15;9.40;99.90
18823;DHT22;9540;51.550;7.980;2022-12-24T06:26:42;9.30;99.90
18823;DHT22;9540;51.550;7.980;2022-12-24T06:29:09;9.20;99.90
18823;DHT22;9540;51.550;7.980;2022-12-24T06:31:36;9.20;99.90
18823;DHT22;9540;51.550;7.980;2022-12-24T06:34:03;9.10;99.90
18823;DHT22;9540;51.550;7.980;2022-12-24T06:36:30;9.10;99.90
18823;DHT22;9540;51.550;7.980;2022-12-24T06:38:58;9.10;99.90
18823;DHT22;9540;51.550;7.980;2022-12-24T06:41:25;9.10;99.90
18823;DHT22;9540;51.550;7.980;2022-12-24T06:43:52;9.10;99.90
18823;DHT22;9540;51.550;7.980;2022-12-24T06:46:19;9.10;99.90
18823;DHT22;9540;51.550;7.980;2022-12-24T06:48:47;9.10;99.90
18823;DHT22;9540;51.550;7.980;2022-12-24T06:51:15;9.10;99.90
18823;DHT22;9540;51.550;7.980;2022-12-24T06:53:44;9.20;99.90
18823;DHT22;9540;51.550;7.980;2022-12-24T06:56:14;9.20;99.90
18823;DHT22;9540;51.550;7.980;2022-12-24T06:58:41;9.20;99.90
18823;DHT22;9540;51.550;7.980;2022-12-24T07:01:12;9.30;99.90
18823;DHT22;9540;51.550;7.980;2022-12-24T07:03:40;9.30;99.90
18823;DHT22;9540;51.550;7.980;2022-12-24T07:06:11;9.30;99.90
18823;DHT22;9540;51.550;7.980;2022-12-24T07:08:40;9.40;99.90
18823;DHT22;9540;51.550;7.980;2022-12-24T07:11:07;9.30;99.90
18823;DHT22;9540;51.550;7.980;2022-12-24T07:13:36;9.40;99.90
18823;DHT22;9540;51.550;7.980;2022-12-24T07:16:03;9.40;99.90
18823;DHT22;9540;51.550;7.980;2022-12-24T07:18:31;9.30;99.90
18823;DHT22;9540;51.550;7.980;2022-12-24T07:20:58;9.40;99.90
18823;DHT22;9540;51.550;7.980;2022-12-24T07:23:25;9.50;99.90
18823;DHT22;9540;51.550;7.980;2022-12-24T07:25:52;9.60;99.90
18823;DHT22;9540;51.550;7.980;2022-12-24T07:28:19;9.60;99.90
18823;DHT22;9540;51.550;7.980;2022-12-24T07:30:48;9.50;99.90
18823;DHT22;9540;51.550;7.980;2022-12-24T07:33:15;9.50;99.90
18823;DHT22;9540;51.550;7.980;2022-12-24T07:35:42;9.40;99.90
18823;DHT22;9540;51.550;7.980;2022-12-24T07:38:09;9.50;99.90
18823;DHT22;9540;51.550;7.980;2022-12-24T07:40:36;9.40;99.90
18823;DHT22;9540;51.550;7.980;2022-12-24T07:43:03;9.40;99.90
18823;DHT22;9540;51.550;7.980;2022-12-24T07:45:30;9.50;99.90
18823;DHT22;9540;51.550;7.980;2022-12-24T07:47:59;9.50;99.90
18823;DHT22;9540;51.550;7.980;2022-12-24T07:50:25;9.50;99.90
18823;DHT22;9540;51.550;7.980;2022-12-24T07:52:52;9.50;99.90
18823;DHT22;9540;51.550;7.980;2022-12-24T07:55:19;9.60;99.90
18823;DHT22;9540;51.550;7.980;2022-12-24T07:57:46;9.60;99.90
18823;DHT22;9540;51.550;7.980;2022-12-24T08:00:14;9.60;99.90
18823;DHT22;9540;51.550;7.980;2022-12-24T08:02:41;9.60;99.90
18823;DHT22;9540;51.550;7.980;2022-12-24T08:05:10;9.60;99.90
18823;DHT22;9540;51.550;7.980;2022-12-24T08:07:36;9.60;99.90
18823;DHT22;9540;51.550;7.980;2022-12-24T08:10:04;9.60;99.90
18823;DHT22;9540;51.550;7.980;2022-12-24T08:12:31;9.50;99.90
18823;DHT22;9540;51.550;7.980;2022-12-24T08:14:58;9.50;99.90
18823;DHT22;9540;51.550;7.980;2022-12-24T08:17:25;9.50;99.90
18823;DHT22;9540;51.550;7.980;2022-12-24T08:19:52;9.50;99.90
18823;DHT22;9540;51.550;7.980;2022-12-24T08:22:20;9.60;99.90
18823;DHT22;9540;51.550;7.980;2022-12-24T08:24:47;9.60;99.90
18823;DHT22;9540;51.550;7.980;2022-12-24T08:27:14;9.70;99.90
18823;DHT22;9540;51.550;7.980;2022-12-24T08:29:41;9.70;99.90
18823;DHT22;9540;51.550;7.980;2022-12-24T08:32:08;9.70;99.90
18823;DHT22;9540;51.550;7.980;2022-12-24T08:34:35;9.70;99.90
18823;DHT22;9540;51.550;7.980;2022-12-24T08:37:02;9.80;99.90
18823;DHT22;9540;51.550;7.980;2022-12-24T08:39:30;9.80;99.90
18823;DHT22;9540;51.550;7.980;2022-12-24T08:41:57;9.90;99.90
18823;DHT22;9540;51.550;7.980;2022-12-24T08:44:24;9.90;99.90
18823;DHT22;9540;51.550;7.980;2022-12-24T08:46:51;9.90;99.90
18823;DHT22;9540;51.550;7.980;2022-12-24T08:49:17;9.90;99.90
18823;DHT22;9540;51.550;7.980;2022-12-24T08:51:44;10.00;99.90
18823;DHT22;9540;51.550;7.980;2022-12-24T08:54:11;10.00;99.90
18823;DHT22;9540;51.550;7.980;2022-12-24T08:56:40;10.00;99.90
18823;DHT22;9540;51.550;7.980;2022-12-24T08:59:06;10.00;99.90
18823;DHT22;9540;51.550;7.980;2022-12-24T09:01:33;10.00;99.90
18823;DHT22;9540;51.550;7.980;2022-12-24T09:04:01;10.10;99.90
18823;DHT22;9540;51.550;7.980;2022-12-24T09:06:28;10.10;99.90
18823;DHT22;9540;51.550;7.980;2022-12-24T09:08:56;10.10;99.90
18823;DHT22;9540;51.550;7.980;2022-12-24T09:11:23;10.10;99.90
18823;DHT22;9540;51.550;7.980;2022-12-24T09:13:53;10.10;99.90
18823;DHT22;9540;51.550;7.980;2022-12-24T09:16:20;10.10;99.90
18823;DHT22;9540;51.550;7.980;2022-12-24T09:18:47;10.10;99.90
18823;DHT22;9540;51.550;7.980;2022-12-24T09:21:15;10.20;99.90
18823;DHT22;9540;51.550;7.980;2022-12-24T09:23:46;10.20;99.90
18823;DHT22;9540;51.550;7.980;2022-12-24T09:26:15;10.30;99.90
18823;DHT22;9540;51.550;7.980;2022-12-24T09:28:42;10.30;99.90
18823;DHT22;9540;51.550;7.980;2022-12-24T09:31:12;10.30;99.90
18823;DHT22;9540;51.550;7.980;2022-12-24T09:33:41;10.30;99.90
18823;DHT22;9540;51.550;7.980;2022-12-24T09:36:08;10.30;99.90
18823;DHT22;9540;51.550;7.980;2022-12-24T09:38:36;10.30;99.90
18823;DHT22;9540;51.550;7.980;2022-12-24T09:41:12;10.30;99.90
18823;DHT22;9540;51.550;7.980;2022-12-24T09:43:44;10.40;99.90
18823;DHT22;9540;51.550;7.980;2022-12-24T09:46:19;10.50;99.90
18823;DHT22;9540;51.550;7.980;2022-12-24T09:48:51;10.50;99.90
18823;DHT22;9540;51.550;7.980;2022-12-24T09:51:24;10.40;99.90
18823;DHT22;9540;51.550;7.980;2022-12-24T09:53:55;10.50;99.90
18823;DHT22;9540;51.550;7.980;2022-12-24T09:56:26;10.60;99.90
18823;DHT22;9540;51.550;7.980;2022-12-24T09:58:56;10.70;99.90
18823;DHT22;9540;51.550;7.980;2022-12-24T10:01:29;10.80;99.90
18823;DHT22;9540;51.550;7.980;2022-12-24T10:03:57;10.90;99.90
18823;DHT22;9540;51.550;7.980;2022-12-24T10:06:29;11.10;99.90
18823;DHT22;9540;51.550;7.980;2022-12-24T10:09:09;11.20;99.90
18823;DHT22;9540;51.550;7.980;2022-12-24T10:11:44;11.10;99.90
18823;DHT22;9540;51.550;7.980;2022-12-24T10:14:25;11.00;99.90
18823;DHT22;9540;51.550;7.980;2022-12-24T10:17:10;10.90;99.90
18823;DHT22;9540;51.550;7.980;2022-12-24T10:19:42;10.70;99.90
18823;DHT22;9540;51.550;7.980;2022-12-24T10:22:19;10.60;99.90
18823;DHT22;9540;51.550;7.980;2022-12-24T10:24:52;10.50;99.90
18823;DHT22;9540;51.550;7.980;2022-12-24T10:27:24;10.60;99.90
18823;DHT22;9540;51.550;7.980;2022-12-24T10:30:00;10.60;99.90
18823;DHT22;9540;51.550;7.980;2022-12-24T10:32:32;10.60;99.90
18823;DHT22;9540;51.550;7.980;2022-12-24T10:35:05;10.70;99.90
18823;DHT22;9540;51.550;7.980;2022-12-24T10:37:33;10.80;99.90
18823;DHT22;9540;51.550;7.980;2022-12-24T10:40:02;10.90;99.90
18823;DHT22;9540;51.550;7.980;2022-12-24T10:42:37;11.00;99.90
18823;DHT22;9540;51.550;7.980;2022-12-24T10:45:06;11.10;99.90
18823;DHT22;9540;51.550;7.980;2022-12-24T10:47:36;11.10;99.90
18823;DHT22;9540;51.550;7.980;2022-12-24T10:50:12;11.10;99.90
18823;DHT22;9540;51.550;7.980;2022-12-24T10:52:43;11.10;99.90
18823;DHT22;9540;51.550;7.980;2022-12-24T10:55:20;11.00;99.90
18823;DHT22;9540;51.550;7.980;2022-12-24T10:57:59;11.00;99.90
18823;DHT22;9540;51.550;7.980;2022-12-24T11:00:27;11.10;99.90
18823;DHT22;9540;51.550;7.980;2022-12-24T11:03:15;11.20;99.90
18823;DHT22;9540;51.550;7.980;2022-12-24T11:05:45;11.20;99.90
18823;DHT22;9540;51.550;7.980;2022-12-24T11:08:24;11.20;99.90
18823;DHT22;9540;51.550;7.980;2022-12-24T11:10:55;11.10;99.90
18823;DHT22;9540;51.550;7.980;2022-12-24T11:13:24;11.10;99.90
18823;DHT22;9540;51.550;7.980;2022-12-24T11:16:00;11.20;99.90
18823;DHT22;9540;51.550;7.980;2022-12-24T11:18:30;11.30;99.90
18823;DHT22;9540;51.550;7.980;2022-12-24T11:20:58;11.50;99.90
18823;DHT22;9540;51.550;7.980;2022-12-24T11:23:26;11.50;99.90
18823;DHT22;9540;51.550;7.980;2022-12-24T11:25:55;11.50;99.90
18823;DHT22;9540;51.550;7.980;2022-12-24T11:28:24;11.40;99.90
18823;DHT22;9540;51.550;7.980;2022-12-24T11:30:57;11.30;99.90
18823;DHT22;9540;51.550;7.980;2022-12-24T11:33:25;11.10;99.90
18823;DHT22;9540;51.550;7.980;2022-12-24T11:35:59;11.00;99.90
18823;DHT22;9540;51.550;7.980;2022-12-24T11:38:28;10.90;99.90
18823;DHT22;9540;51.550;7.980;2022-12-24T11:41:07;11.00;99.90
18823;DHT22;9540;51.550;7.980;2022-12-24T11:43:44;11.10;99.90
18823;DHT22;9540;51.550;7.980;2022-12-24T11:46:20;11.00;99.90
18823;DHT22;9540;51.550;7.980;2022-12-24T11:48:48;10.90;99.90
18823;DHT22;9540;51.550;7.980;2022-12-24T11:51:31;10.90;99.90
18823;DHT22;9540;51.550;7.980;2022-12-24T11:54:07;10.90;99.90
18823;DHT22;9540;51.550;7.980;2022-12-24T11:56:42;10.90;99.90
18823;DHT22;9540;51.550;7.980;2022-12-24T11:59:17;10.90;99.90
18823;DHT22;9540;51.550;7.980;2022-12-24T12:01:51;10.90;99.90
18823;DHT22;9540;51.550;7.980;2022-12-24T12:04:22;11.00;99.90
18823;DHT22;9540;51.550;7.980;2022-12-24T12:06:54;11.00;99.90
18823;DHT22;9540;51.550;7.980;2022-12-24T12:09:27;11.00;99.90
18823;DHT22;9540;51.550;7.980;2022-12-24T12:11:59;11.00;99.90
18823;DHT22;9540;51.550;7.980;2022-12-24T12:14:31;11.00;99.90
18823;DHT22;9540;51.550;7.980;2022-12-24T12:17:03;11.00;99.90
18823;DHT22;9540;51.550;7.980;2022-12-24T12:19:38;11.10;99.90
18823;DHT22;9540;51.550;7.980;2022-12-24T12:22:21;11.40;99.90
18823;DHT22;9540;51.550;7.980;2022-12-24T12:24:51;11.70;99.90
18823;DHT22;9540;51.550;7.980;2022-12-24T12:27:26;11.70;99.90
18823;DHT22;9540;51.550;7.980;2022-12-24T12:29:58;11.70;99.90
18823;DHT22;9540;51.550;7.980;2022-12-24T12:32:32;11.50;99.90
18823;DHT22;9540;51.550;7.980;2022-12-24T12:35:08;11.30;99.90
18823;DHT22;9540;51.550;7.980;2022-12-24T12:37:44;11.10;99.90
18823;DHT22;9540;51.550;7.980;2022-12-24T12:40:15;11.00;99.90
18823;DHT22;9540;51.550;7.980;2022-12-24T12:42:51;10.90;99.90
18823;DHT22;9540;51.550;7.980;2022-12-24T12:45:30;10.90;99.90
18823;DHT22;9540;51.550;7.980;2022-12-24T12:50:57;10.80;99.90
18823;DHT22;9540;51.550;7.980;2022-12-24T12:53:40;10.80;99.90
18823;DHT22;9540;51.550;7.980;2022-12-24T12:56:17;10.70;99.90
18823;DHT22;9540;51.550;7.980;2022-12-24T12:58:49;10.70;99.90
18823;DHT22;9540;51.550;7.980;2022-12-24T13:01:21;10.70;99.90
18823;DHT22;9540;51.550;7.980;2022-12-24T13:07:25;10.90;99.90
18823;DHT22;9540;51.550;7.980;2022-12-24T13:10:33;10.90;99.90
18823;DHT22;9540;51.550;7.980;2022-12-24T13:13:29;10.80;99.90
18823;DHT22;9540;51.550;7.980;2022-12-24T13:16:22;10.70;99.90
18823;DHT22;9540;51.550;7.980;2022-12-24T13:19:01;10.60;99.90
18823;DHT22;9540;51.550;7.980;2022-12-24T13:21:31;10.60;99.90
18823;DHT22;9540;51.550;7.980;2022-12-24T13:24:05;10.70;99.90
18823;DHT22;9540;51.550;7.980;2022-12-24T13:26:34;10.60;99.90
18823;DHT22;9540;51.550;7.980;2022-12-24T13:29:29;10.60;99.90
18823;DHT22;9540;51.550;7.980;2022-12-24T13:32:37;10.60;99.90
18823;DHT22;9540;51.550;7.980;2022-12-24T13:35:27;10.60;99.90
18823;DHT22;9540;51.550;7.980;2022-12-24T13:38:38;10.40;99.90
18823;DHT22;9540;51.550;7.980;2022-12-24T13:44:29;10.50;99.90
18823;DHT22;9540;51.550;7.980;2022-12-24T13:49:44;10.30;99.90
18823;DHT22;9540;51.550;7.980;2022-12-24T13:52:19;10.40;99.90
18823;DHT22;9540;51.550;7.980;2022-12-24T13:54:58;10.40;99.90
18823;DHT22;9540;51.550;7.980;2022-12-24T13:57:31;10.50;99.90
18823;DHT22;9540;51.550;7.980;2022-12-24T14:00:04;10.60;99.90
18823;DHT22;9540;51.550;7.980;2022-12-24T14:02:36;10.60;99.90
18823;DHT22;9540;51.550;7.980;2022-12-24T14:05:07;10.60;99.90
18823;DHT22;9540;51.550;7.980;2022-12-24T14:07:45;10.50;99.90
18823;DHT22;9540;51.550;7.980;2022-12-24T14:10:20;10.40;99.90
18823;DHT22;9540;51.550;7.980;2022-12-24T14:12:49;10.30;99.90
18823;DHT22;9540;51.550;7.980;2022-12-24T14:18:32;10.30;99.90
18823;DHT22;9540;51.550;7.980;2022-12-24T14:21:01;10.20;99.90
18823;DHT22;9540;51.550;7.980;2022-12-24T14:23:44;10.30;99.90
18823;DHT22;9540;51.550;7.980;2022-12-24T14:26:16;10.20;99.90
18823;DHT22;9540;51.550;7.980;2022-12-24T14:28:46;10.10;99.90
18823;DHT22;9540;51.550;7.980;2022-12-24T14:31:17;10.00;99.90
18823;DHT22;9540;51.550;7.980;2022-12-24T14:33:46;9.90;99.90
18823;DHT22;9540;51.550;7.980;2022-12-24T14:36:18;9.80;99.90
18823;DHT22;9540;51.550;7.980;2022-12-24T14:38:46;9.70;99.90
18823;DHT22;9540;51.550;7.980;2022-12-24T14:41:24;9.70;99.90
18823;DHT22;9540;51.550;7.980;2022-12-24T14:44:00;9.60;99.90
18823;DHT22;9540;51.550;7.980;2022-12-24T14:46:37;9.60;99.90
18823;DHT22;9540;51.550;7.980;2022-12-24T14:49:16;9.50;99.90
18823;DHT22;9540;51.550;7.980;2022-12-24T14:51:54;9.60;99.90
18823;DHT22;9540;51.550;7.980;2022-12-24T14:54:32;9.60;99.90
18823;DHT22;9540;51.550;7.980;2022-12-24T14:57:17;9.50;99.90
18823;DHT22;9540;51.550;7.980;2022-12-24T14:59:46;9.40;99.90
18823;DHT22;9540;51.550;7.980;2022-12-24T15:05:11;9.30;99.90
18823;DHT22;9540;51.550;7.980;2022-12-24T15:07:42;9.10;99.90
18823;DHT22;9540;51.550;7.980;2022-12-24T15:10:22;9.00;99.90
18823;DHT22;9540;51.550;7.980;2022-12-24T15:12:50;8.80;99.90
18823;DHT22;9540;51.550;7.980;2022-12-24T15:15:18;8.50;99.90
18823;DHT22;9540;51.550;7.980;2022-12-24T15:17:46;8.30;99.90
18823;DHT22;9540;51.550;7.980;2022-12-24T15:20:17;8.10;99.90
18823;DHT22;9540;51.550;7.980;2022-12-24T15:22:45;7.80;99.90
18823;DHT22;9540;51.550;7.980;2022-12-24T15:25:21;7.60;99.90
18823;DHT22;9540;51.550;7.980;2022-12-24T15:27:49;7.50;99.90
18823;DHT22;9540;51.550;7.980;2022-12-24T15:30:17;7.30;99.90
18823;DHT22;9540;51.550;7.980;2022-12-24T15:32:45;7.10;99.90
18823;DHT22;9540;51.550;7.980;2022-12-24T15:35:52;6.90;99.90
18823;DHT22;9540;51.550;7.980;2022-12-24T15:38:28;6.70;99.90
18823;DHT22;9540;51.550;7.980;2022-12-24T15:40:56;6.50;99.90
18823;DHT22;9540;51.550;7.980;2022-12-24T15:43:24;6.30;99.90
18823;DHT22;9540;51.550;7.980;2022-12-24T15:45:52;6.20;99.90
18823;DHT22;9540;51.550;7.980;2022-12-24T15:48:22;6.00;99.90
18823;DHT22;9540;51.550;7.980;2022-12-24T15:50:53;5.90;99.90
18823;DHT22;9540;51.550;7.980;2022-12-24T15:53:26;5.90;99.90
18823;DHT22;9540;51.550;7.980;2022-12-24T15:56:08;5.70;99.90
18823;DHT22;9540;51.550;7.980;2022-12-24T15:58:36;5.60;99.90
18823;DHT22;9540;51.550;7.980;2022-12-24T16:03:57;5.60;99.90
18823;DHT22;9540;51.550;7.980;2022-12-24T16:06:26;5.60;99.90
18823;DHT22;9540;51.550;7.980;2022-12-24T16:08:54;5.70;99.90
18823;DHT22;9540;51.550;7.980;2022-12-24T16:11:24;5.70;99.90
18823;DHT22;9540;51.550;7.980;2022-12-24T16:14:04;5.70;99.90
18823;DHT22;9540;51.550;7.980;2022-12-24T16:16:36;5.90;99.90
18823;DHT22;9540;51.550;7.980;2022-12-24T16:19:04;5.90;99.90
18823;DHT22;9540;51.550;7.980;2022-12-24T16:21:37;6.10;99.90
18823;DHT22;9540;51.550;7.980;2022-12-24T16:24:11;6.10;99.90
18823;DHT22;9540;51.550;7.980;2022-12-24T16:26:39;6.20;99.90
18823;DHT22;9540;51.550;7.980;2022-12-24T16:29:07;6.20;99.90
18823;DHT22;9540;51.550;7.980;2022-12-24T16:31:36;6.20;99.90
18823;DHT22;9540;51.550;7.980;2022-12-24T16:34:04;6.30;99.90
18823;DHT22;9540;51.550;7.980;2022-12-24T16:36:31;6.40;99.90
18823;DHT22;9540;51.550;7.980;2022-12-24T16:39:00;6.40;99.90
18823;DHT22;9540;51.550;7.980;2022-12-24T16:41:44;6.50;99.90
18823;DHT22;9540;51.550;7.980;2022-12-24T16:44:28;6.50;99.90
18823;DHT22;9540;51.550;7.980;2022-12-24T16:46:58;6.70;99.90